Report METAR

 


LIBF - Foggia/Gino Lisa, Italy
Distance from station: NE 23km
Dati ricevuti: 17/06/2024 15:50
Sereno
Sereno
 Vento da E
Vento: E 26 km/h
Temperatura: 33°C
P.to Rugiada: 12°C
Umidità: 28%
Barometro: 1015 hPa
Summary: Sereno
Visibility: superiore a 10 km
2024/06/17 13:50 LIBF 171350Z 09014KT CAVOK 33/12 Q1015
LIRT - Trevico, Italy
Distance from station: SSO 28km
Dati ricevuti: 17/06/2024 15:55
Nubi sparse
Nubi sparse
 Vento da Variabile
Vento: Variabile 4 km/h
Temperatura: 26°C
P.to Rugiada: 12°C
Umidità: 42%
Barometro: 1021 hPa
Nuvole: Nubi sparse
Visibility: 10 km
Cloud details: Nubi sparse 244 m
2024/06/17 13:55 LIRT 171355Z VRB02KT 9999 FEW008 26/12 Q1021
LIBA - Amendola (it-Afb, Italy
Distance from station: NE 42km
Dati ricevuti: 17/06/2024 15:55
Nubi sparse
Nubi sparse
 Vento da E
Vento: E 28 km/h
Temperatura: 30°C
P.to Rugiada: 12°C
Umidità: 33%
Barometro: 1015 hPa
Nuvole: Nubi sparse
Visibility: 10 km
Cloud details: Nubi sparse 1524 m
2024/06/17 13:55 LIBA 171355Z 09015KT 9999 FEW050 30/12 Q1015
 
LIRI - Pontecagnano (af, Italy
Distance from station: SSO 81km
Dati ricevuti: 17/06/2024 15:50
Sereno
Sereno
 Vento da OSO
Vento: OSO 13 km/h
Temperatura: 27°C
Indice di Calore: 29°C
P.to Rugiada: 21°C
Umidità: 70%
Barometro: 1016 hPa
Summary: Sereno
Visibility: superiore a 10 km
2024/06/17 13:50 LIRI 171350Z 25007KT 210V280 CAVOK 27/21 Q1016
LIRN - Naples/Capodichi, Italy
Distance from station: OSO 96km
Dati ricevuti: 17/06/2024 16:20
Sereno
Sereno
 Vento da S
Vento: S 13 km/h
Temperatura: 29°C
Indice di Calore: 29°C
P.to Rugiada: 17°C
Umidità: 48%
Barometro: 1016 hPa
Summary: Sereno
Visibility: superiore a 10 km
2024/06/17 14:20 LIRN 171420Z 19007KT 140V240 CAVOK 29/17 Q1016 NOSIG
LIRM - Grazzanise (it-A, Italy
Distance from station: OSO 109km
Dati ricevuti: 17/06/2024 15:55
Sereno
Sereno
 Vento da SO
Vento: SO 22 km/h
Temperatura: 28°C
Indice di Calore: 29°C
P.to Rugiada: 20°C
Umidità: 62%
Barometro: 1016 hPa
Summary: Sereno
Visibility: superiore a 10 km
2024/06/17 13:55 LIRM 171355Z 22012KT CAVOK 28/20 Q1016
 
LIBD - Bari/Palese Macc, Italy
Distance from station: E 121km
Dati ricevuti: 17/06/2024 16:20
Sereno
Sereno
 Vento da N
Vento: N 11 km/h
Temperatura: 26°C
P.to Rugiada: 20°C
Umidità: 70%
Barometro: 1016 hPa
Summary: Sereno
Visibility: superiore a 10 km
2024/06/17 14:20 LIBD 171420Z 01006KT 330V070 CAVOK 26/20 Q1016
LIQC - Capri Island, Italy
Distance from station: SO 124km
Dati ricevuti: 17/06/2024 15:55
Sereno
Sereno
 Vento da calmo
Vento: Calma
Temperatura: 24°C
P.to Rugiada: 20°C
Umidità: 78%
Barometro: 1018 hPa
Summary: Sereno
Visibility: superiore a 10 km
2024/06/17 13:55 LIQC 171355Z 00000KT CAVOK 24/20 Q1018 RMK SKC QUK 2 QUL 1 SW VIS MAR 20 KM VIS MIN 9999
LIBV - Gioia Del Colle, Italy
Distance from station: ESE 144km
Dati ricevuti: 17/06/2024 15:55
Sereno
Sereno
 Vento da N
Vento: N 26 km/h
Temperatura: 29°C
Indice di Calore: 29°C
P.to Rugiada: 15°C
Umidità: 43%
Barometro: 1016 hPa
Summary: Sereno
Visibility: superiore a 10 km
2024/06/17 13:55 LIBV 171355Z 36014KT CAVOK 29/15 Q1016
 
LIBP - Pescara, Italy
Distance from station: NO 159km
Dati ricevuti: 17/06/2024 16:20
Sereno
Sereno
 Vento da ENE
Vento: ENE 17 km/h
Temperatura: 28°C
Indice di Calore: 29°C
P.to Rugiada: 18°C
Umidità: 55%
Barometro: 1016 hPa
Nuvole: Sereno
Visibility: 10 km
2024/06/17 14:20 LIBP 171420Z AUTO 07009KT 040V100 9999 NCD 28/18 Q1016
LIBH - Marina Di Ginosa, Italy
Distance from station: SE 160km
Dati ricevuti: 17/06/2024 15:55
Sereno
Sereno
 Vento da SSO
Vento: SSO 20 km/h
Temperatura: 30°C
Indice di Calore: 32°C
P.to Rugiada: 20°C
Umidità: 55%
Barometro: 1013 hPa
Summary: Sereno
Visibility: superiore a 10 km
2024/06/17 13:55 LIBH 171355Z 20011KT CAVOK 30/20 Q1013 RMK SKC QUK 2 QUL 1 SW VIS MAR 30 KM VIS MIN 9999
LIRH - Frosinone (it-Af, Italy
Distance from station: ONO 174km
Dati ricevuti: 17/06/2024 15:55
Nubi sparse
Nubi sparse
 Vento da ONO
Vento: ONO 7 km/h
Temperatura: 32°C
P.to Rugiada: 14°C
Umidità: 33%
Barometro: 1016 hPa
Nuvole: Nubi sparse
Visibility: 10 km
Cloud details: Nubi sparse 1219 m
2024/06/17 13:55 LIRH 171355Z 30004KT 9999 FEW040 32/14 Q1016
 
LIBG - Grottaglie(Civ/A, Italy
Distance from station: ESE 192km
Dati ricevuti: 17/06/2024 15:50
Sereno
Sereno
 Vento da SSO
Vento: SSO 9 km/h
Temperatura: 33°C
P.to Rugiada: 13°C
Umidità: 30%
Barometro: 1014 hPa
Summary: Sereno
Visibility: superiore a 10 km
2024/06/17 13:50 LIBG 171350Z 21005KT 110V270 CAVOK 33/13 Q1014
LIRL - Latina (it-Afb), Italy
Distance from station: O 205km
Dati ricevuti: 17/06/2024 15:55
Nubi sparse
Nubi sparse
 Vento da Variabile
Vento: Variabile 0 km/h
Temperatura: 31°C
Indice di Calore: 32°C
P.to Rugiada: 17°C
Umidità: 43%
Barometro: 1016 hPa
Nuvole: Nubi sparse
Visibility: 10 km
Cloud details: Nubi sparse 610 m
2024/06/17 13:55 LIRL 171355Z /////KT 9999 FEW020 31/17 Q1016
LIBR - Brindisi/Casale, Italy
Distance from station: ESE 231km
Dati ricevuti: 17/06/2024 16:20
Nubi sparse
Nubi sparse
 Vento da NO
Vento: NO 28 km/h
Temperatura: 26°C
P.to Rugiada: 22°C
Umidità: 79%
Barometro: 1015 hPa
Nuvole: Nubi sparse
Visibility: 10 km
Cloud details: Nubi sparse 305 m
2024/06/17 14:20 LIBR 171420Z 32015KT 9999 FEW010 26/22 Q1015
 
LIRG - Guidonia (it-Afb, Italy
Distance from station: ONO 232km
Dati ricevuti: 17/06/2024 15:55
Sereno
Sereno
 Vento da OSO
Vento: OSO 11 km/h
Temperatura: 31°C
P.to Rugiada: 14°C
Umidità: 35%
Barometro: 1017 hPa
Summary: Sereno
Visibility: superiore a 10 km
2024/06/17 13:55 LIRG 171355Z 25006KT CAVOK 31/14 Q1017
LIBQ - Scuro Mountain, Italy
Distance from station: SSE 235km
Dati ricevuti: 17/06/2024 15:55
Nubi sparse
Nubi sparse
 Vento da O
Vento: O 6 km/h
Temperatura: 20°C
P.to Rugiada: 10°C
Umidità: 53%
Barometro: 1024 hPa
Nuvole: Nubi sparse
Visibility: 10 km
Cloud details: Nubi sparse 152 m
2024/06/17 13:55 LIBQ 171355Z 26003KT 9999 FEW005 20/10 Q1024
LIRA - Ciampino(It-Afb/, Italy
Distance from station: ONO 236km
Dati ricevuti: 17/06/2024 16:20
Sereno
Sereno
 Vento da O
Vento: O 15 km/h
Temperatura: 30°C
P.to Rugiada: 14°C
Umidità: 38%
Barometro: 1016 hPa
Summary: Sereno
Visibility: superiore a 10 km
2024/06/17 14:20 LIRA 171420Z 26008KT 220V330 CAVOK 30/14 Q1016
 
LIQN - Rieti, Italy
Distance from station: ONO 243km
Dati ricevuti: 17/06/2024 15:50
Sereno
Sereno
 Vento da NO
Vento: NO 7 km/h
Temperatura: 29°C
P.to Rugiada: 11°C
Umidità: 33%
Barometro: 1018 hPa
Summary: Sereno
Visibility: superiore a 10 km
2024/06/17 13:50 LIQN 171350Z 31004KT 260V020 CAVOK 29/11 Q1018
LIRE - Pratica Di Mare(, Italy
Distance from station: O 246km
Dati ricevuti: 17/06/2024 15:55
Sereno
Sereno
 Vento da O
Vento: O 20 km/h
Temperatura: 26°C
P.to Rugiada: 19°C
Umidità: 65%
Barometro: 1017 hPa
Summary: Sereno
Visibility: superiore a 10 km
2024/06/17 13:55 LIRE 171355Z 28011KT CAVOK 26/19 Q1017